Startpagina
METAR-TAF:

METAR-TAF

Vliegvelden :

Piggs Peak, Swaziland

breedte: 25-58-04S, lengte: 31-15-03E, hoogte: 1099 m

Actueel weer

Dit bericht is 49 minuten geleden gemaakt, om 05:00 UTC
Wind 4 kt uit het westzuidwesten
Temperatuur 7°C
Vochtigheid 61%
Druk 1035 hPa

METAR: FDPP 190500Z AUTO 25004KT //// // ////// 07/M00 Q1035

Tijdstip: 07:49 (05:49 UTC)


TAF: ontbreekt

Waarnemingen en weersverwachtingen van meer dan 4000 vliegvelden (METAR en TAF).

De beschikbare stations zijn de gele en rode punten op de kaart.

Ga met uw muis naar het station om de naam te zien.

Klik dan om waarnemingen en weersverwachtingen te zien.

kaart wijzigen: klik op de groene knoppen met een zwart kruis om in te zoomen, op de groene knop met een streepje om uit te zoomen of op de groene pijlen voor aangrenzende kaarten.


METAR-TAF: